PWSweather.com
Personal Weather Stations
Station Observations
KMNGREYC2
Grey Cloud Island, Grey Cloud Island, MN 55071

Grey Cloud IslandGrey Cloud Island, MN 55071

Lat: 44.799333, Lon: -92.987851

Elevation: 700

Station Type: Davis VP2

www.jagielski.com/weather/conditions.htm

High Low Average
Temperature 84.0°F28.9°C 66.8°F19.3°C 74.9°F23.8°C
Dew Point 73.9°F23.3°C 63.5°F17.5°C 68.8°F20.4°C
Winds 11.0 mph 17.7 kmh Calm Calm 1.0 mph SW1.6 kmh SW
Wind Gusts 13.0 mph20.9 kmh -- 6.0 mph9.7 kmh
Humidity 96% 69% 82%
Pressure 29.94 in1013.9 mb 29.78 in1008.5 mb -
Precipitation 0.00 in0.0 mm - -
Hour Temp Dew Point Humidity Winds Wind Gusts Pressure Precip Precip Rate Daily Precip Total
12:00 AM 67.6°F19.8°C 64.3°F17.9°C 89% Calm Calm 3.0 mph4.8 kmh 29.94 in1013.9 mb 0.00 in0.0 mm 0.00 in0.0 mm 0.00 in0.0 mm
12:15 AM 67.6°F19.8°C 64.3°F17.9°C 89% Calm Calm 3.0 mph4.8 kmh 29.94 in1013.9 mb 0.00 in0.0 mm 0.00 in0.0 mm 0.00 in0.0 mm
12:30 AM 67.7°F19.8°C 64.4°F18.0°C 89% Calm Calm 3.0 mph4.8 kmh 29.94 in1013.9 mb 0.00 in0.0 mm 0.00 in0.0 mm 0.00 in0.0 mm
12:45 AM 67.7°F19.8°C 64.4°F18.0°C 89% Calm Calm 2.0 mph3.2 kmh 29.94 in1013.9 mb 0.00 in0.0 mm 0.00 in0.0 mm 0.00 in0.0 mm
01:00 AM 67.8°F19.9°C 64.4°F18.0°C 89% Calm Calm 5.0 mph8.0 kmh 29.94 in1013.9 mb 0.00 in0.0 mm 0.00 in0.0 mm 0.00 in0.0 mm
01:15 AM 67.9°F19.9°C 64.5°F18.1°C 89% Calm Calm 2.0 mph3.2 kmh 29.94 in1013.9 mb 0.00 in0.0 mm 0.00 in0.0 mm 0.00 in0.0 mm
01:30 AM 68.0°F20.0°C 64.3°F17.9°C 88% Calm Calm 6.0 mph9.7 kmh 29.93 in1013.5 mb 0.00 in0.0 mm 0.00 in0.0 mm 0.00 in0.0 mm
01:45 AM 68.1°F20.1°C 64.4°F18.0°C 88% Calm Calm 7.0 mph11.3 kmh 29.93 in1013.5 mb 0.00 in0.0 mm 0.00 in0.0 mm 0.00 in0.0 mm
02:00 AM 68.2°F20.1°C 64.2°F17.9°C 87% 2.0 mph WSW3.2 kmh WSW 7.0 mph11.3 kmh 29.93 in1013.5 mb 0.00 in0.0 mm 0.00 in0.0 mm 0.00 in0.0 mm
02:15 AM 68.3°F20.2°C 64.0°F17.8°C 86% Calm Calm 6.0 mph9.7 kmh 29.92 in1013.2 mb 0.00 in0.0 mm 0.00 in0.0 mm 0.00 in0.0 mm
02:30 AM 68.4°F20.2°C 64.1°F17.8°C 86% 2.0 mph S3.2 kmh S 6.0 mph9.7 kmh 29.92 in1013.2 mb 0.00 in0.0 mm 0.00 in0.0 mm 0.00 in0.0 mm
02:45 AM 68.4°F20.2°C 64.1°F17.8°C 86% Calm Calm 6.0 mph9.7 kmh 29.91 in1012.9 mb 0.00 in0.0 mm 0.00 in0.0 mm 0.00 in0.0 mm
03:00 AM 68.4°F20.2°C 64.1°F17.8°C 86% Calm Calm 8.0 mph12.9 kmh 29.91 in1012.9 mb 0.00 in0.0 mm 0.00 in0.0 mm 0.00 in0.0 mm
03:15 AM 68.4°F20.2°C 64.1°F17.8°C 86% Calm Calm 1.0 mph1.6 kmh 29.91 in1012.9 mb 0.00 in0.0 mm 0.00 in0.0 mm 0.00 in0.0 mm
03:30 AM 68.4°F20.2°C 64.1°F17.8°C 86% 1.0 mph SSW1.6 kmh SSW 5.0 mph8.0 kmh 29.90 in1012.5 mb 0.00 in0.0 mm 0.00 in0.0 mm 0.00 in0.0 mm
03:45 AM 68.5°F20.3°C 63.8°F17.7°C 85% Calm Calm 4.0 mph6.4 kmh 29.88 in1011.9 mb 0.00 in0.0 mm 0.00 in0.0 mm 0.00 in0.0 mm
04:00 AM 68.6°F20.3°C 63.9°F17.7°C 85% Calm Calm 4.0 mph6.4 kmh 29.87 in1011.5 mb 0.00 in0.0 mm 0.00 in0.0 mm 0.00 in0.0 mm
04:15 AM 68.8°F20.4°C 63.8°F17.7°C 84% Calm Calm 5.0 mph8.0 kmh 29.87 in1011.5 mb 0.00 in0.0 mm 0.00 in0.0 mm 0.00 in0.0 mm
04:30 AM 68.9°F20.5°C 63.5°F17.5°C 83% Calm Calm 5.0 mph8.0 kmh 29.88 in1011.9 mb 0.00 in0.0 mm 0.00 in0.0 mm 0.00 in0.0 mm
04:45 AM 69.1°F20.6°C 63.7°F17.6°C 83% 2.0 mph SSW3.2 kmh SSW 5.0 mph8.0 kmh 29.87 in1011.5 mb 0.00 in0.0 mm 0.00 in0.0 mm 0.00 in0.0 mm
05:00 AM 69.2°F20.7°C 63.5°F17.5°C 82% Calm Calm 6.0 mph9.7 kmh 29.87 in1011.5 mb 0.00 in0.0 mm 0.00 in0.0 mm 0.00 in0.0 mm
05:15 AM 69.4°F20.8°C 64.0°F17.8°C 83% Calm Calm 3.0 mph4.8 kmh 29.88 in1011.9 mb 0.00 in0.0 mm 0.00 in0.0 mm 0.00 in0.0 mm
05:30 AM 69.2°F20.7°C 64.2°F17.9°C 84% Calm Calm 3.0 mph4.8 kmh 29.88 in1011.9 mb 0.02 in0.5 mm 0.08 in2.0 mm 0.02 in0.5 mm
05:45 AM 68.5°F20.3°C 63.8°F17.7°C 85% Calm Calm 2.0 mph3.2 kmh 29.88 in1011.9 mb 0.04 in1.0 mm 0.08 in2.0 mm 0.04 in1.0 mm
06:00 AM 67.9°F19.9°C 63.9°F17.7°C 87% Calm Calm 4.0 mph6.4 kmh 29.88 in1011.9 mb 0.06 in1.5 mm 0.03 in0.8 mm 0.06 in1.5 mm
06:15 AM 67.3°F19.6°C 64.0°F17.8°C 89% Calm Calm 3.0 mph4.8 kmh 29.88 in1011.9 mb 0.07 in1.8 mm 0.04 in1.0 mm 0.07 in1.8 mm
06:30 AM 67.0°F19.4°C 63.7°F17.6°C 89% Calm Calm 3.0 mph4.8 kmh 29.88 in1011.9 mb 0.07 in1.8 mm 0.00 in0.0 mm 0.07 in1.8 mm
06:45 AM 66.9°F19.4°C 63.9°F17.7°C 90% Calm Calm 1.0 mph1.6 kmh 29.88 in1011.9 mb 0.04 in1.0 mm 0.00 in0.0 mm 0.07 in1.8 mm
07:00 AM 66.9°F19.4°C 64.2°F17.9°C 91% Calm Calm 1.0 mph1.6 kmh 29.90 in1012.5 mb 0.04 in1.0 mm 0.00 in0.0 mm 0.07 in1.8 mm
07:15 AM 66.8°F19.3°C 64.4°F18.0°C 92% Calm Calm -- 29.90 in1012.5 mb 0.00 in0.0 mm 0.00 in0.0 mm 0.07 in1.8 mm
07:30 AM 66.8°F19.3°C 64.7°F18.2°C 93% Calm Calm -- 29.91 in1012.9 mb 0.00 in0.0 mm 0.00 in0.0 mm 0.07 in1.8 mm
07:45 AM 66.8°F19.3°C 65.0°F18.3°C 94% Calm Calm -- 29.91 in1012.9 mb 0.01 in0.3 mm 0.04 in1.0 mm 0.08 in2.0 mm
08:00 AM 66.9°F19.4°C 65.4°F18.6°C 95% Calm Calm -- 29.91 in1012.9 mb 0.01 in0.3 mm 0.00 in0.0 mm 0.08 in2.0 mm
08:15 AM 66.8°F19.3°C 65.3°F18.5°C 95% Calm Calm -- 29.90 in1012.5 mb 0.02 in0.5 mm 0.04 in1.0 mm 0.09 in2.3 mm
08:30 AM 66.8°F19.3°C 65.3°F18.5°C 95% Calm Calm 3.0 mph4.8 kmh 29.89 in1012.2 mb 0.02 in0.5 mm 0.00 in0.0 mm 0.09 in2.3 mm
08:45 AM 66.8°F19.3°C 65.3°F18.5°C 95% 1.0 mph WSW1.6 kmh WSW 13.0 mph20.9 kmh 29.85 in1010.8 mb 0.03 in0.8 mm 0.04 in1.0 mm 0.10 in2.5 mm
09:00 AM 66.8°F19.3°C 65.3°F18.5°C 95% 11.0 mph SW17.7 kmh SW 13.0 mph20.9 kmh 29.82 in1009.8 mb 0.03 in0.8 mm 0.00 in0.0 mm 0.10 in2.5 mm
09:15 AM 67.2°F19.6°C 65.7°F18.7°C 95% 1.0 mph N1.6 kmh N 6.0 mph9.7 kmh 29.84 in1010.5 mb 0.03 in0.8 mm 0.00 in0.0 mm 0.10 in2.5 mm
09:30 AM 67.4°F19.7°C 65.9°F18.8°C 95% Calm Calm 6.0 mph9.7 kmh 29.86 in1011.2 mb 0.03 in0.8 mm 0.00 in0.0 mm 0.10 in2.5 mm
09:45 AM 67.6°F19.8°C 66.4°F19.1°C 96% Calm Calm 5.0 mph8.0 kmh 29.88 in1011.9 mb 0.02 in0.5 mm 0.00 in0.0 mm 0.10 in2.5 mm
10:00 AM 68.1°F20.1°C 66.9°F19.4°C 96% Calm Calm 5.0 mph8.0 kmh 29.87 in1011.5 mb 0.02 in0.5 mm 0.00 in0.0 mm 0.10 in2.5 mm
10:15 AM 68.6°F20.3°C 67.4°F19.7°C 96% 4.0 mph SW6.4 kmh SW 5.0 mph8.0 kmh 29.86 in1011.2 mb 0.00 in0.0 mm 0.00 in0.0 mm 0.10 in2.5 mm
10:30 AM 69.2°F20.7°C 68.0°F20.0°C 96% Calm Calm 12.0 mph19.3 kmh 29.86 in1011.2 mb 0.00 in0.0 mm 0.00 in0.0 mm 0.10 in2.5 mm
10:45 AM 70.3°F21.3°C 68.5°F20.3°C 94% 2.0 mph SW3.2 kmh SW 7.0 mph11.3 kmh 29.86 in1011.2 mb 0.00 in0.0 mm 0.00 in0.0 mm 0.10 in2.5 mm
11:00 AM 71.6°F22.0°C 67.5°F19.7°C 87% Calm Calm 8.0 mph12.9 kmh 29.86 in1011.2 mb 0.00 in0.0 mm 0.00 in0.0 mm 0.10 in2.5 mm
11:15 AM 72.9°F22.7°C 67.8°F19.9°C 84% Calm Calm 9.0 mph14.5 kmh 29.86 in1011.2 mb 0.00 in0.0 mm 0.00 in0.0 mm 0.10 in2.5 mm
11:30 AM 74.0°F23.3°C 68.9°F20.5°C 84% 6.0 mph SW9.7 kmh SW 9.0 mph14.5 kmh 29.86 in1011.2 mb 0.00 in0.0 mm 0.00 in0.0 mm 0.10 in2.5 mm
11:45 AM 75.2°F24.0°C 69.0°F20.6°C 81% Calm Calm 7.0 mph11.3 kmh 29.86 in1011.2 mb 0.00 in0.0 mm 0.00 in0.0 mm 0.10 in2.5 mm
12:00 PM 76.1°F24.5°C 68.8°F20.4°C 78% 1.0 mph SSW1.6 kmh SSW 8.0 mph12.9 kmh 29.86 in1011.2 mb 0.00 in0.0 mm 0.00 in0.0 mm 0.10 in2.5 mm
12:15 PM 76.6°F24.8°C 69.6°F20.9°C 79% Calm Calm 7.0 mph11.3 kmh 29.86 in1011.2 mb 0.00 in0.0 mm 0.00 in0.0 mm 0.10 in2.5 mm
12:30 PM 77.0°F25.0°C 70.4°F21.3°C 80% Calm Calm 7.0 mph11.3 kmh 29.86 in1011.2 mb 0.00 in0.0 mm 0.00 in0.0 mm 0.10 in2.5 mm
12:45 PM 77.5°F25.3°C 70.5°F21.4°C 79% Calm Calm 5.0 mph8.0 kmh 29.86 in1011.2 mb 0.00 in0.0 mm 0.00 in0.0 mm 0.10 in2.5 mm
01:00 PM 78.4°F25.8°C 69.8°F21.0°C 75% 1.0 mph SW1.6 kmh SW 9.0 mph14.5 kmh 29.86 in1011.2 mb 0.00 in0.0 mm 0.00 in0.0 mm 0.10 in2.5 mm
01:15 PM 79.2°F26.2°C 70.6°F21.4°C 75% 3.0 mph SSW4.8 kmh SSW 5.0 mph8.0 kmh 29.85 in1010.8 mb 0.00 in0.0 mm 0.00 in0.0 mm 0.10 in2.5 mm
01:30 PM 79.6°F26.4°C 70.6°F21.4°C 74% 1.0 mph S1.6 kmh S 7.0 mph11.3 kmh 29.85 in1010.8 mb 0.00 in0.0 mm 0.00 in0.0 mm 0.10 in2.5 mm
01:45 PM 80.0°F26.7°C 70.2°F21.2°C 72% 2.0 mph SW3.2 kmh SW 9.0 mph14.5 kmh 29.85 in1010.8 mb 0.00 in0.0 mm 0.00 in0.0 mm 0.10 in2.5 mm
02:00 PM 80.8°F27.1°C 70.5°F21.4°C 71% 2.0 mph SSW3.2 kmh SSW 12.0 mph19.3 kmh 29.84 in1010.5 mb 0.00 in0.0 mm 0.00 in0.0 mm 0.10 in2.5 mm
02:15 PM 81.9°F27.7°C 71.6°F22.0°C 71% 2.0 mph SW3.2 kmh SW 11.0 mph17.7 kmh 29.84 in1010.5 mb 0.01 in0.3 mm 0.04 in1.0 mm 0.11 in2.8 mm
02:30 PM 82.5°F28.1°C 71.3°F21.8°C 69% Calm Calm 11.0 mph17.7 kmh 29.84 in1010.5 mb 0.01 in0.3 mm 0.00 in0.0 mm 0.11 in2.8 mm
02:45 PM 82.6°F28.1°C 71.8°F22.1°C 70% 2.0 mph W3.2 kmh W 6.0 mph9.7 kmh 29.84 in1010.5 mb 0.01 in0.3 mm 0.00 in0.0 mm 0.11 in2.8 mm
03:00 PM 82.9°F28.3°C 71.7°F22.1°C 69% Calm Calm 8.0 mph12.9 kmh 29.84 in1010.5 mb 0.01 in0.3 mm 0.00 in0.0 mm 0.11 in2.8 mm
03:15 PM 82.7°F28.2°C 71.9°F22.2°C 70% 1.0 mph S1.6 kmh S 7.0 mph11.3 kmh 29.84 in1010.5 mb 0.01 in0.3 mm 0.00 in0.0 mm 0.11 in2.8 mm
03:30 PM 82.8°F28.2°C 72.0°F22.2°C 70% Calm Calm 8.0 mph12.9 kmh 29.83 in1010.2 mb 0.01 in0.3 mm 0.00 in0.0 mm 0.11 in2.8 mm
03:45 PM 83.1°F28.4°C 72.3°F22.4°C 70% 1.0 mph SSW1.6 kmh SSW 7.0 mph11.3 kmh 29.83 in1010.2 mb 0.00 in0.0 mm 0.00 in0.0 mm 0.11 in2.8 mm
04:00 PM 83.3°F28.5°C 72.1°F22.3°C 69% 2.0 mph SW3.2 kmh SW 7.0 mph11.3 kmh 29.83 in1010.2 mb 0.00 in0.0 mm 0.00 in0.0 mm 0.11 in2.8 mm
04:15 PM 83.6°F28.7°C 72.4°F22.4°C 69% 8.0 mph SSW12.9 kmh SSW 9.0 mph14.5 kmh 29.83 in1010.2 mb 0.00 in0.0 mm 0.00 in0.0 mm 0.11 in2.8 mm
04:30 PM 83.7°F28.7°C 72.5°F22.5°C 69% 5.0 mph SW8.0 kmh SW 9.0 mph14.5 kmh 29.83 in1010.2 mb 0.00 in0.0 mm 0.00 in0.0 mm 0.11 in2.8 mm
04:45 PM 83.8°F28.8°C 73.0°F22.8°C 70% Calm Calm 10.0 mph16.1 kmh 29.83 in1010.2 mb 0.00 in0.0 mm 0.00 in0.0 mm 0.11 in2.8 mm
05:00 PM 83.9°F28.8°C 73.9°F23.3°C 72% Calm Calm 12.0 mph19.3 kmh 29.82 in1009.8 mb 0.00 in0.0 mm 0.00 in0.0 mm 0.11 in2.8 mm
05:15 PM 84.0°F28.9°C 73.6°F23.1°C 71% 6.0 mph S9.7 kmh S 7.0 mph11.3 kmh 29.82 in1009.8 mb 0.00 in0.0 mm 0.00 in0.0 mm 0.11 in2.8 mm
05:30 PM 84.0°F28.9°C 73.6°F23.1°C 71% 1.0 mph SW1.6 kmh SW 9.0 mph14.5 kmh 29.81 in1009.5 mb 0.00 in0.0 mm 0.00 in0.0 mm 0.11 in2.8 mm
05:45 PM 84.0°F28.9°C 73.2°F22.9°C 70% Calm Calm 10.0 mph16.1 kmh 29.81 in1009.5 mb 0.00 in0.0 mm 0.00 in0.0 mm 0.11 in2.8 mm
06:00 PM 83.9°F28.8°C 73.9°F23.3°C 72% 1.0 mph SSW1.6 kmh SSW 10.0 mph16.1 kmh 29.80 in1009.1 mb 0.00 in0.0 mm 0.00 in0.0 mm 0.11 in2.8 mm
06:15 PM 83.6°F28.7°C 73.2°F22.9°C 71% 4.0 mph S6.4 kmh S 8.0 mph12.9 kmh 29.78 in1008.5 mb 0.00 in0.0 mm 0.00 in0.0 mm 0.11 in2.8 mm
06:30 PM 83.3°F28.5°C 73.3°F22.9°C 72% 3.0 mph SW4.8 kmh SW 8.0 mph12.9 kmh 29.79 in1008.8 mb 0.00 in0.0 mm 0.00 in0.0 mm 0.11 in2.8 mm
06:45 PM 82.8°F28.2°C 73.3°F22.9°C 73% Calm Calm 8.0 mph12.9 kmh 29.79 in1008.8 mb 0.00 in0.0 mm 0.00 in0.0 mm 0.11 in2.8 mm
07:00 PM 82.3°F27.9°C 73.2°F22.9°C 74% Calm Calm 8.0 mph12.9 kmh 29.80 in1009.1 mb 0.00 in0.0 mm 0.00 in0.0 mm 0.11 in2.8 mm
07:15 PM 81.8°F27.7°C 73.5°F23.1°C 76% Calm Calm 2.0 mph3.2 kmh 29.78 in1008.5 mb 0.00 in0.0 mm 0.00 in0.0 mm 0.11 in2.8 mm
07:30 PM 81.3°F27.4°C 73.0°F22.8°C 76% Calm Calm 5.0 mph8.0 kmh 29.80 in1009.1 mb 0.00 in0.0 mm 0.00 in0.0 mm 0.11 in2.8 mm
07:45 PM 80.9°F27.2°C 72.6°F22.6°C 76% Calm Calm 8.0 mph12.9 kmh 29.79 in1008.8 mb 0.00 in0.0 mm 0.00 in0.0 mm 0.11 in2.8 mm
08:00 PM 80.9°F27.2°C 73.0°F22.8°C 77% Calm Calm 8.0 mph12.9 kmh 29.80 in1009.1 mb 0.00 in0.0 mm 0.00 in0.0 mm 0.11 in2.8 mm
08:15 PM 81.0°F27.2°C 73.1°F22.8°C 77% 1.0 mph SW1.6 kmh SW 4.0 mph6.4 kmh 29.80 in1009.1 mb 0.00 in0.0 mm 0.00 in0.0 mm 0.11 in2.8 mm
08:30 PM 81.0°F27.2°C 73.1°F22.8°C 77% 2.0 mph S3.2 kmh S 5.0 mph8.0 kmh 29.80 in1009.1 mb 0.00 in0.0 mm 0.00 in0.0 mm 0.11 in2.8 mm
08:45 PM 80.8°F27.1°C 73.3°F22.9°C 78% 1.0 mph SSW1.6 kmh SSW 6.0 mph9.7 kmh 29.79 in1008.8 mb 0.00 in0.0 mm 0.00 in0.0 mm 0.11 in2.8 mm
09:00 PM 80.6°F27.0°C 73.5°F23.1°C 79% Calm Calm 7.0 mph11.3 kmh 29.78 in1008.5 mb 0.00 in0.0 mm 0.00 in0.0 mm 0.11 in2.8 mm
09:15 PM 80.3°F26.8°C 73.6°F23.1°C 80% Calm Calm 7.0 mph11.3 kmh 29.78 in1008.5 mb 0.00 in0.0 mm 0.00 in0.0 mm 0.11 in2.8 mm
09:30 PM 79.9°F26.6°C 73.2°F22.9°C 80% Calm Calm 7.0 mph11.3 kmh 29.79 in1008.8 mb 0.00 in0.0 mm 0.00 in0.0 mm 0.11 in2.8 mm
09:45 PM 79.6°F26.4°C 72.5°F22.5°C 79% 4.0 mph NE6.4 kmh NE 7.0 mph11.3 kmh 29.82 in1009.8 mb 0.00 in0.0 mm 0.00 in0.0 mm 0.11 in2.8 mm
10:00 PM 79.0°F26.1°C 71.9°F22.2°C 79% Calm Calm 7.0 mph11.3 kmh 29.82 in1009.8 mb 0.00 in0.0 mm 0.00 in0.0 mm 0.11 in2.8 mm
10:15 PM 78.6°F25.9°C 71.9°F22.2°C 80% Calm Calm 2.0 mph3.2 kmh 29.81 in1009.5 mb 0.00 in0.0 mm 0.00 in0.0 mm 0.11 in2.8 mm
10:30 PM 78.1°F25.6°C 71.4°F21.9°C 80% Calm Calm 2.0 mph3.2 kmh 29.81 in1009.5 mb 0.00 in0.0 mm 0.00 in0.0 mm 0.11 in2.8 mm
10:45 PM 77.4°F25.2°C 71.5°F21.9°C 82% Calm Calm 1.0 mph1.6 kmh 29.80 in1009.1 mb 0.00 in0.0 mm 0.00 in0.0 mm 0.11 in2.8 mm
11:00 PM 76.9°F24.9°C 71.7°F22.1°C 84% 1.0 mph NW1.6 kmh NW 3.0 mph4.8 kmh 29.80 in1009.1 mb 0.00 in0.0 mm 0.00 in0.0 mm 0.11 in2.8 mm
11:15 PM 76.9°F24.9°C 72.1°F22.3°C 85% Calm Calm 4.0 mph6.4 kmh 29.80 in1009.1 mb 0.00 in0.0 mm 0.00 in0.0 mm 0.11 in2.8 mm
11:30 PM 76.8°F24.9°C 72.3°F22.4°C 86% 1.0 mph NNE1.6 kmh NNE 4.0 mph6.4 kmh 29.81 in1009.5 mb 0.00 in0.0 mm 0.00 in0.0 mm 0.11 in2.8 mm
11:45 PM 76.1°F24.5°C 70.9°F21.6°C 84% Calm Calm 2.0 mph3.2 kmh 29.82 in1009.8 mb 0.00 in0.0 mm 0.00 in0.0 mm 0.11 in2.8 mm